Logo AVAMET
Benvolgut visitant, si us plau, ingressa Recuperar contrasenya
AVAMET paisatges
Union Alcoyana

Borriana Platja del Grau

Dades diàries. Acumulats / Últims 30 dies disponibles

Data Temperatura (°C) Humitat rel. (%) Pressió rel. (hPa) Vent (km/h) Precipitació
Mínima Mitjana Màxima Amplitud
tèrmica
Mínima Mitjana Màxima Mínima Mitjana Màxima Predom. Mitjana Ràfega
màxima
Total
(mm)
Índex-n
Mínima Mitjana Màxima Mínima Mitjana Màxima n
0 a 1
P0 max
mm 5'
Dades mensuals acumulades fins l'últim dia disponible
04/2021 6,3 10,9 14,2 13,7 12,7 16,0 20,4 14,1 39 78 93 1.008 1.019 1.030   14,3 57,4 52,0
Dades anuals acumulades fins l'últim dia disponible
2021 0,9 9,0 16,6 12,3 6,6 15,3 25,3 24,4 28 73 97 1.002 1.021 1.040   15,2 92,5 119,6
Últims 30 dies disponibles
29-04-2021 13,8     15,9     19,4 5,6 72 87 92 1.009 1.010 1.011 S 11,8 45,0 0,0
28-04-2021 13,1     15,5     17,7 4,6 78 85 92 1.009 1.010 1.011 NE 13,0 33,3 1,2 0,15 0,40
27-04-2021 11,9     14,7     17,6 5,7 78 86 93 1.008 1.009 1.011 ENE 10,9 35,1 1,2
26-04-2021 13,0     14,1     16,0 3,0 80 87 93 1.009 1.011 1.016 NNE 13,8 55,5 27,8 0,42 0,80
25-04-2021 12,0     14,6     16,4 4,4 74 83 91 1.013 1.017 1.022 NNE 19,8 51,8 0,4
24-04-2021 11,2     13,9     15,9 4,7 75 83 90 1.021 1.023 1.025 NNE 12,7 29,6 0,0
23-04-2021 10,1     13,8     15,3 5,2 77 85 92 1.022 1.024 1.025 ENE 13,4 27,8 0,0
22-04-2021 13,1     14,0     14,6 1,5 87 90 93 1.017 1.019 1.023 ENE 23,4 50,0 7,8 0,34 0,60
21-04-2021 12,9     14,1     15,6 2,7 81 86 91 1.015 1.016 1.019 NE 14,4 50,0 0,2
20-04-2021 11,1     14,0     15,9 4,8 60 76 91 1.015 1.017 1.019 NNE 15,9 37,0 2,6 0,45 0,90
19-04-2021 8,6     12,8     15,6 7,0 57 68 78 1.018 1.020 1.024 NNE 14,7 31,4 0,0
18-04-2021 6,3     11,5     14,7 8,4 39 65 91 1.024 1.022 1.024 NNE 17,9 42,5 0,2
14-04-2021 14,2     14,5     15,7 1,5 75 77 81 1.022 1.024 1.026 SSE 11,8 25,9 0,0
13-04-2021 9,9     13,2     15,6 5,7 72 80 87 1.025 1.027 1.029 S 15,6 33,3 0,0
12-04-2021 10,3     12,6     14,6 4,3 48 67 85 1.022 1.027 1.029 SE 17,7 37,0 0,0
11-04-2021 10,9     14,1     17,8 6,9 73 82 91 1.014 1.017 1.022 SSE 15,3 55,5 6,0 0,56 2,10
10-04-2021 11,0     12,3     13,6 2,6 82 87 91 1.017 1.019 1.023 SSO 10,1 31,4 1,0
09-04-2021 7,7     10,4     12,9 5,2 75 84 93 1.023 1.025 1.027 NO 11,3 24,1 3,0 0,20
08-04-2021 10,2     11,6     13,2 3,0 64 77 89 1.026 1.028 1.030 S 11,8 38,9 0,0
07-04-2021 7,9     11,5     12,7 4,8 45 66 87 1.016 1.023 1.030 ENE 16,3 42,5 0,0
06-04-2021 12,1     15,0     19,6 7,5 39 62 84 1.013 1.015 1.018 N 14,5 44,4 0,0
05-04-2021 9,7     13,4     16,0 6,3 65 76 87 1.018 1.020 1.022 S 12,8 42,5 0,0
04-04-2021 12,1     14,8     16,0 3,9 66 78 90 1.014 1.019 1.022 SE 15,4 57,4 0,0
03-04-2021 11,5     15,3     20,4 8,9 52 72 92 1.013 1.015 1.016 SO 13,0 29,6 0,0
02-04-2021 10,4     14,3     17,4 7,0 57 72 87 1.015 1.017 1.020 NNO 11,3 29,6 0,6 0,20
01-04-2021 9,6     13,0     15,4 5,8 69 79 89 1.019 1.022 1.026 N 13,6 38,9 0,0
31-03-2021 8,4     12,4     14,7 6,3 64 80 95 1.025 1.028 1.031 NNE 12,0 27,8 0,0
30-03-2021 9,5     13,5     15,8 6,3 63 78 93 1.031 1.032 1.034 NO 13,2 31,4 0,0
29-03-2021 10,2     13,4     15,8 5,6 57 71 84 1.033 1.034 1.035 NNE 20,1 46,3 0,0
28-03-2021 8,4     12,3     15,1 6,7 62 73 83 1.032 1.034 1.035 N 16,0 31,4 0,0
Últims 13 mesos disponibles
04/2021 6,3 10,9 14,2 13,7 12,7 16,0 20,4 14,1 62 78 90 1.009 1.019 1.028 NNE 14,3 57,4 52,0
03/2021 4,9 8,8 12,7 12,1 11,4 14,9 18,8 13,9 55 76 93 1.017 1.026 1.034 NNE 15,6 59,2 38,6
02/2021 7,1 10,0 16,6 13,0 12,8 15,7 24,3 17,2 44 76 89 1.005 1.021 1.038 N 12,5 92,5 12,2
12/2020 3,9 8,2 12,2 12,2 13,6 16,3 20,4 16,5 43 65 87 999 1.017 1.031 ONO 5,6 74,0 2,4
11/2020 7,7 12,6 17,2 16,2 17,1 19,4 22,6 14,9 56 80 93 1.009 1.023 1.027 ONO 3,6 87,0 70,4
10/2020 9,9 14,0 17,9 18,0 17,4 21,6 26,4 16,5 51 69 90 999 1.020 1.029 SO 4,1 92,5 5,4
07/2020 19,3 21,6 23,9 24,9 25,3 27,1 29,7 10,4 64 81 88 1.014 1.019 1.023 SSE 8,9 45,0 2,2
06/2020 14,1 18,2 21,8 21,7 19,9 24,1 27,9 13,8 46 78 89 1.006 1.017 1.024 S 12,4 68,5 25,8
05/2020 12,4 16,2 19,6 19,7 18,5 22,7 30,4 18,0 56 79 89 1.007 1.019 1.030 S 11,9 68,5 22,8
04/2020 7,9 12,3 17,7 15,1 13,7 17,9 27,6 19,7 55 83 93 1.008 1.019 1.029 S 11,6 72,4 120,6
03/2020 5,7 10,0 14,3 13,3 10,9 16,2 24,5 18,8 49 77 95 1.008 1.020 1.029 SSO 14,4 94,9 91,4
02/2020 6,1 9,7 13,6 13,4 13,4 17,0 24,4 18,3 56 78 92 1.015 1.028 1.036 SO 10,5 68,5 0,0
01/2020 3,6 7,2 12,7 10,7 10,9 14,3 18,9 15,3 67 80 94 1.020 1.028 1.035 SO 13,8 96,5 69,0
Tots els anys disponibles
2019 3,7 14,0 24,2 17,4 8,7 20,6 30,8 27,1 31 73 96 996 1.020 1.037 SSO 13,5 111,0 219,2
2018 1,3 14,3 27,1 17,6 7,7 20,7 32,4 31,1 33 74 96 995 1.018 1.038 SO 13,1 88,8 454,6
Temperatura (°C)
Humitat relativa (%)
Velocitat del vent i ràfega màxima (km/h)
Direcció del vent (°)
Pressió (hPa)
Precipitació (mm)
Nota sobre les dades: s'avisa a l'usuari de la provisionalitat i no oficialitat d'aquestes dades
Logo AVAMET blanc
Web allotjada a Sollutia
Llicència de Creative CommonsLa web d'AVAMET i els seus continguts estan subjectes a una llicència de
Reconeixement - No Comercial - Compartir igual
Avís legal - Política de privacitat - Política de cookies
NOVES ESTACIONS: Alpuente - la Torre (Soci), Gaibiel (Ajuntament/Soci), Almenara - Comunitat de Regants (Soci), Gandia - Camí de la mar (Soci), Ayódar (Soci),  Busot - Policia Local (Ajuntament/Soci), Vilafranca - la Pobla del Bellestar (Ajuntament/Soci), la Serratella (Ajuntament/Soci),  Xixona - Cantal del Tormo (Soci),  Castelló de la Plana - Edifici Capitol (Soci),  Algimia de Almonacid (Soci) - - -